sensor_id;sensor_type;location;lat;lon;timestamp;P1;durP1;ratioP1;P2;durP2;ratioP2
12869;SDS011;6503;48.572;13.460;2023-01-08T00:00:13;19.30;;;9.00;;
12869;SDS011;6503;48.572;13.460;2023-01-08T00:02:41;17.13;;;9.57;;
12869;SDS011;6503;48.572;13.460;2023-01-08T00:05:10;23.92;;;9.48;;
12869;SDS011;6503;48.572;13.460;2023-01-08T00:07:37;25.52;;;9.32;;
12869;SDS011;6503;48.572;13.460;2023-01-08T00:10:05;27.33;;;8.95;;
12869;SDS011;6503;48.572;13.460;2023-01-08T00:12:32;17.08;;;9.27;;
12869;SDS011;6503;48.572;13.460;2023-01-08T00:14:59;22.10;;;8.88;;
12869;SDS011;6503;48.572;13.460;2023-01-08T00:17:27;21.20;;;9.05;;
12869;SDS011;6503;48.572;13.460;2023-01-08T00:19:56;34.58;;;9.30;;
12869;SDS011;6503;48.572;13.460;2023-01-08T00:22:37;19.02;;;8.25;;
12869;SDS011;6503;48.572;13.460;2023-01-08T00:25:04;15.63;;;8.23;;
12869;SDS011;6503;48.572;13.460;2023-01-08T00:27:32;17.10;;;9.73;;
12869;SDS011;6503;48.572;13.460;2023-01-08T00:30:00;22.73;;;9.07;;
12869;SDS011;6503;48.572;13.460;2023-01-08T00:32:29;17.20;;;8.52;;
12869;SDS011;6503;48.572;13.460;2023-01-08T00:34:56;18.77;;;8.68;;
12869;SDS011;6503;48.572;13.460;2023-01-08T00:37:23;30.40;;;9.65;;
12869;SDS011;6503;48.572;13.460;2023-01-08T00:39:51;19.35;;;8.57;;
12869;SDS011;6503;48.572;13.460;2023-01-08T00:42:19;19.80;;;9.57;;
12869;SDS011;6503;48.572;13.460;2023-01-08T00:44:46;19.92;;;8.80;;
12869;SDS011;6503;48.572;13.460;2023-01-08T00:47:13;22.05;;;8.75;;
12869;SDS011;6503;48.572;13.460;2023-01-08T00:49:40;16.73;;;8.50;;
12869;SDS011;6503;48.572;13.460;2023-01-08T00:52:07;27.17;;;9.13;;
12869;SDS011;6503;48.572;13.460;2023-01-08T00:54:41;85.85;;;12.55;;
12869;SDS011;6503;48.572;13.460;2023-01-08T00:57:10;46.50;;;10.73;;
12869;SDS011;6503;48.572;13.460;2023-01-08T00:59:37;74.32;;;12.48;;
12869;SDS011;6503;48.572;13.460;2023-01-08T01:02:04;22.92;;;9.55;;
12869;SDS011;6503;48.572;13.460;2023-01-08T01:04:31;13.13;;;9.07;;
12869;SDS011;6503;48.572;13.460;2023-01-08T01:06:58;15.48;;;9.35;;
12869;SDS011;6503;48.572;13.460;2023-01-08T01:09:25;21.92;;;8.98;;
12869;SDS011;6503;48.572;13.460;2023-01-08T01:11:54;21.95;;;8.82;;
12869;SDS011;6503;48.572;13.460;2023-01-08T01:14:57;20.95;;;8.82;;
12869;SDS011;6503;48.572;13.460;2023-01-08T01:18:36;48.58;;;9.68;;
12869;SDS011;6503;48.572;13.460;2023-01-08T01:25:16;71.25;;;10.27;;
12869;SDS011;6503;48.572;13.460;2023-01-08T01:28:13;75.25;;;11.48;;
12869;SDS011;6503;48.572;13.460;2023-01-08T01:34:22;62.97;;;11.07;;
12869;SDS011;6503;48.572;13.460;2023-01-08T01:37:33;49.50;;;10.32;;
12869;SDS011;6503;48.572;13.460;2023-01-08T01:40:22;70.97;;;11.35;;
12869;SDS011;6503;48.572;13.460;2023-01-08T01:53:06;45.45;;;10.90;;
12869;SDS011;6503;48.572;13.460;2023-01-08T01:56:11;52.60;;;10.73;;
12869;SDS011;6503;48.572;13.460;2023-01-08T01:59:15;114.28;;;13.65;;
12869;SDS011;6503;48.572;13.460;2023-01-08T02:02:01;46.47;;;10.77;;
12869;SDS011;6503;48.572;13.460;2023-01-08T02:05:15;51.33;;;10.40;;
12869;SDS011;6503;48.572;13.460;2023-01-08T02:07:47;48.92;;;11.75;;
12869;SDS011;6503;48.572;13.460;2023-01-08T02:10:22;48.83;;;11.65;;
12869;SDS011;6503;48.572;13.460;2023-01-08T02:12:56;29.63;;;10.30;;
12869;SDS011;6503;48.572;13.460;2023-01-08T02:15:45;47.00;;;10.35;;
12869;SDS011;6503;48.572;13.460;2023-01-08T02:18:33;39.67;;;9.77;;
12869;SDS011;6503;48.572;13.460;2023-01-08T02:21:23;64.22;;;10.85;;
12869;SDS011;6503;48.572;13.460;2023-01-08T02:24:15;48.33;;;11.07;;
12869;SDS011;6503;48.572;13.460;2023-01-08T02:36:26;70.90;;;12.70;;
12869;SDS011;6503;48.572;13.460;2023-01-08T02:39:18;54.00;;;10.52;;
12869;SDS011;6503;48.572;13.460;2023-01-08T02:42:11;110.93;;;12.75;;
12869;SDS011;6503;48.572;13.460;2023-01-08T02:44:56;77.30;;;12.27;;
12869;SDS011;6503;48.572;13.460;2023-01-08T02:47:45;38.58;;;10.50;;
12869;SDS011;6503;48.572;13.460;2023-01-08T02:50:31;68.28;;;11.90;;
12869;SDS011;6503;48.572;13.460;2023-01-08T02:53:14;42.45;;;11.05;;
12869;SDS011;6503;48.572;13.460;2023-01-08T03:06:35;48.60;;;10.95;;
12869;SDS011;6503;48.572;13.460;2023-01-08T03:09:03;47.30;;;11.07;;
12869;SDS011;6503;48.572;13.460;2023-01-08T03:11:32;96.78;;;12.95;;
12869;SDS011;6503;48.572;13.460;2023-01-08T03:14:06;42.58;;;10.23;;
12869;SDS011;6503;48.572;13.460;2023-01-08T03:16:36;45.50;;;11.38;;
12869;SDS011;6503;48.572;13.460;2023-01-08T03:19:07;71.28;;;12.90;;
12869;SDS011;6503;48.572;13.460;2023-01-08T03:21:39;105.97;;;14.10;;
12869;SDS011;6503;48.572;13.460;2023-01-08T03:24:09;64.40;;;12.90;;
12869;SDS011;6503;48.572;13.460;2023-01-08T03:26:38;47.92;;;13.93;;
12869;SDS011;6503;48.572;13.460;2023-01-08T03:29:07;58.72;;;13.00;;
12869;SDS011;6503;48.572;13.460;2023-01-08T03:31:36;94.38;;;13.38;;
12869;SDS011;6503;48.572;13.460;2023-01-08T03:34:05;43.20;;;11.77;;
12869;SDS011;6503;48.572;13.460;2023-01-08T03:36:33;33.15;;;12.52;;
12869;SDS011;6503;48.572;13.460;2023-01-08T03:39:11;32.92;;;11.82;;
12869;SDS011;6503;48.572;13.460;2023-01-08T03:41:40;39.25;;;11.38;;
12869;SDS011;6503;48.572;13.460;2023-01-08T03:44:07;45.53;;;11.35;;
12869;SDS011;6503;48.572;13.460;2023-01-08T03:46:36;104.00;;;14.70;;
12869;SDS011;6503;48.572;13.460;2023-01-08T03:49:07;42.15;;;11.63;;
12869;SDS011;6503;48.572;13.460;2023-01-08T03:51:39;36.38;;;10.52;;
12869;SDS011;6503;48.572;13.460;2023-01-08T03:54:07;55.78;;;11.23;;
12869;SDS011;6503;48.572;13.460;2023-01-08T03:56:36;33.92;;;10.27;;
12869;SDS011;6503;48.572;13.460;2023-01-08T03:59:04;41.55;;;10.30;;
12869;SDS011;6503;48.572;13.460;2023-01-08T04:01:31;49.75;;;10.68;;
12869;SDS011;6503;48.572;13.460;2023-01-08T04:03:58;48.38;;;10.38;;
12869;SDS011;6503;48.572;13.460;2023-01-08T04:06:25;42.33;;;10.32;;
12869;SDS011;6503;48.572;13.460;2023-01-08T04:08:52;22.13;;;8.73;;
12869;SDS011;6503;48.572;13.460;2023-01-08T04:11:21;54.55;;;11.43;;
12869;SDS011;6503;48.572;13.460;2023-01-08T04:13:48;34.45;;;9.63;;
12869;SDS011;6503;48.572;13.460;2023-01-08T04:16:15;30.92;;;9.23;;
12869;SDS011;6503;48.572;13.460;2023-01-08T04:18:42;60.53;;;11.73;;
12869;SDS011;6503;48.572;13.460;2023-01-08T04:21:09;63.47;;;12.02;;
12869;SDS011;6503;48.572;13.460;2023-01-08T04:23:36;54.35;;;14.38;;
12869;SDS011;6503;48.572;13.460;2023-01-08T04:26:03;37.33;;;10.45;;
12869;SDS011;6503;48.572;13.460;2023-01-08T04:28:32;32.75;;;10.00;;
12869;SDS011;6503;48.572;13.460;2023-01-08T04:30:59;73.07;;;12.35;;
12869;SDS011;6503;48.572;13.460;2023-01-08T04:33:31;80.88;;;12.23;;
12869;SDS011;6503;48.572;13.460;2023-01-08T04:35:58;46.00;;;10.93;;
12869;SDS011;6503;48.572;13.460;2023-01-08T04:38:25;33.65;;;11.25;;
12869;SDS011;6503;48.572;13.460;2023-01-08T04:40:54;51.10;;;11.55;;
12869;SDS011;6503;48.572;13.460;2023-01-08T04:43:22;32.47;;;11.38;;
12869;SDS011;6503;48.572;13.460;2023-01-08T04:45:51;39.22;;;10.65;;
12869;SDS011;6503;48.572;13.460;2023-01-08T04:48:17;26.98;;;10.02;;
12869;SDS011;6503;48.572;13.460;2023-01-08T04:50:44;30.60;;;10.02;;
12869;SDS011;6503;48.572;13.460;2023-01-08T04:53:11;25.10;;;10.05;;
12869;SDS011;6503;48.572;13.460;2023-01-08T04:55:38;30.48;;;9.63;;
12869;SDS011;6503;48.572;13.460;2023-01-08T04:58:05;23.27;;;9.43;;
12869;SDS011;6503;48.572;13.460;2023-01-08T05:00:32;60.80;;;12.13;;
12869;SDS011;6503;48.572;13.460;2023-01-08T05:03:01;66.82;;;12.27;;
12869;SDS011;6503;48.572;13.460;2023-01-08T05:05:28;50.13;;;12.38;;
12869;SDS011;6503;48.572;13.460;2023-01-08T05:07:55;40.90;;;12.38;;
12869;SDS011;6503;48.572;13.460;2023-01-08T05:10:22;27.13;;;10.85;;
12869;SDS011;6503;48.572;13.460;2023-01-08T05:12:49;57.15;;;12.93;;
12869;SDS011;6503;48.572;13.460;2023-01-08T05:15:16;50.95;;;11.35;;
12869;SDS011;6503;48.572;13.460;2023-01-08T05:17:43;26.27;;;10.43;;
12869;SDS011;6503;48.572;13.460;2023-01-08T05:20:12;24.98;;;11.52;;
12869;SDS011;6503;48.572;13.460;2023-01-08T05:22:39;19.63;;;10.30;;
12869;SDS011;6503;48.572;13.460;2023-01-08T05:25:06;27.80;;;11.40;;
12869;SDS011;6503;48.572;13.460;2023-01-08T05:27:33;35.10;;;11.25;;
12869;SDS011;6503;48.572;13.460;2023-01-08T05:30:00;32.17;;;13.23;;
12869;SDS011;6503;48.572;13.460;2023-01-08T05:32:27;36.20;;;12.00;;
12869;SDS011;6503;48.572;13.460;2023-01-08T05:34:54;34.47;;;11.90;;
12869;SDS011;6503;48.572;13.460;2023-01-08T05:37:22;54.28;;;12.90;;
12869;SDS011;6503;48.572;13.460;2023-01-08T05:39:49;41.35;;;13.38;;
12869;SDS011;6503;48.572;13.460;2023-01-08T05:42:16;47.88;;;13.85;;
12869;SDS011;6503;48.572;13.460;2023-01-08T05:44:43;65.35;;;13.25;;
12869;SDS011;6503;48.572;13.460;2023-01-08T05:47:10;33.80;;;13.73;;
12869;SDS011;6503;48.572;13.460;2023-01-08T05:49:37;52.95;;;14.20;;
12869;SDS011;6503;48.572;13.460;2023-01-08T05:52:05;52.45;;;14.02;;
12869;SDS011;6503;48.572;13.460;2023-01-08T05:54:33;51.20;;;13.40;;
12869;SDS011;6503;48.572;13.460;2023-01-08T05:57:00;53.83;;;14.32;;
12869;SDS011;6503;48.572;13.460;2023-01-08T05:59:27;47.20;;;13.23;;
12869;SDS011;6503;48.572;13.460;2023-01-08T06:01:54;36.53;;;11.68;;
12869;SDS011;6503;48.572;13.460;2023-01-08T06:04:21;68.07;;;14.85;;
12869;SDS011;6503;48.572;13.460;2023-01-08T06:06:48;63.30;;;15.63;;
12869;SDS011;6503;48.572;13.460;2023-01-08T06:09:15;66.55;;;16.55;;
12869;SDS011;6503;48.572;13.460;2023-01-08T06:11:44;64.97;;;16.58;;
12869;SDS011;6503;48.572;13.460;2023-01-08T06:14:11;75.28;;;17.33;;
12869;SDS011;6503;48.572;13.460;2023-01-08T06:16:39;65.95;;;16.88;;
12869;SDS011;6503;48.572;13.460;2023-01-08T06:19:08;92.65;;;18.30;;
12869;SDS011;6503;48.572;13.460;2023-01-08T06:21:35;59.55;;;16.25;;
12869;SDS011;6503;48.572;13.460;2023-01-08T06:24:02;86.07;;;19.75;;
12869;SDS011;6503;48.572;13.460;2023-01-08T06:26:30;76.43;;;17.35;;
12869;SDS011;6503;48.572;13.460;2023-01-08T06:28:58;100.63;;;21.52;;
12869;SDS011;6503;48.572;13.460;2023-01-08T06:31:26;77.72;;;19.23;;
12869;SDS011;6503;48.572;13.460;2023-01-08T06:33:53;77.63;;;18.65;;
12869;SDS011;6503;48.572;13.460;2023-01-08T06:36:20;70.70;;;19.00;;
12869;SDS011;6503;48.572;13.460;2023-01-08T06:38:47;69.75;;;17.80;;
12869;SDS011;6503;48.572;13.460;2023-01-08T06:41:14;59.85;;;17.65;;
12869;SDS011;6503;48.572;13.460;2023-01-08T06:43:41;41.58;;;16.27;;
12869;SDS011;6503;48.572;13.460;2023-01-08T06:46:12;36.65;;;16.63;;
12869;SDS011;6503;48.572;13.460;2023-01-08T06:48:39;41.40;;;15.43;;
12869;SDS011;6503;48.572;13.460;2023-01-08T06:51:06;31.80;;;14.55;;
12869;SDS011;6503;48.572;13.460;2023-01-08T06:53:33;25.85;;;13.80;;
12869;SDS011;6503;48.572;13.460;2023-01-08T06:56:01;24.58;;;12.10;;
12869;SDS011;6503;48.572;13.460;2023-01-08T06:58:28;32.83;;;13.63;;
12869;SDS011;6503;48.572;13.460;2023-01-08T07:00:55;25.60;;;12.40;;
12869;SDS011;6503;48.572;13.460;2023-01-08T07:03:25;23.08;;;12.88;;
12869;SDS011;6503;48.572;13.460;2023-01-08T07:05:52;23.55;;;12.70;;
12869;SDS011;6503;48.572;13.460;2023-01-08T07:08:19;27.27;;;12.38;;
12869;SDS011;6503;48.572;13.460;2023-01-08T07:10:46;23.90;;;12.07;;
12869;SDS011;6503;48.572;13.460;2023-01-08T07:13:13;25.27;;;13.10;;
12869;SDS011;6503;48.572;13.460;2023-01-08T07:15:40;24.50;;;11.80;;
12869;SDS011;6503;48.572;13.460;2023-01-08T07:18:08;27.88;;;13.18;;
12869;SDS011;6503;48.572;13.460;2023-01-08T07:20:38;25.40;;;13.20;;
12869;SDS011;6503;48.572;13.460;2023-01-08T07:23:06;24.60;;;12.55;;
12869;SDS011;6503;48.572;13.460;2023-01-08T07:25:35;28.45;;;13.65;;
12869;SDS011;6503;48.572;13.460;2023-01-08T07:28:02;28.02;;;12.80;;
12869;SDS011;6503;48.572;13.460;2023-01-08T07:30:29;29.90;;;13.80;;
12869;SDS011;6503;48.572;13.460;2023-01-08T07:32:57;26.85;;;13.60;;
12869;SDS011;6503;48.572;13.460;2023-01-08T07:35:25;27.88;;;14.65;;
12869;SDS011;6503;48.572;13.460;2023-01-08T07:37:54;27.05;;;12.30;;
12869;SDS011;6503;48.572;13.460;2023-01-08T07:40:21;26.73;;;12.25;;
12869;SDS011;6503;48.572;13.460;2023-01-08T07:42:55;20.25;;;11.65;;
12869;SDS011;6503;48.572;13.460;2023-01-08T07:45:23;25.40;;;12.35;;
12869;SDS011;6503;48.572;13.460;2023-01-08T07:47:50;23.73;;;11.70;;
12869;SDS011;6503;48.572;13.460;2023-01-08T07:50:17;26.55;;;13.57;;
12869;SDS011;6503;48.572;13.460;2023-01-08T07:52:44;23.23;;;12.50;;
12869;SDS011;6503;48.572;13.460;2023-01-08T07:55:13;24.00;;;12.23;;
12869;SDS011;6503;48.572;13.460;2023-01-08T07:57:40;25.67;;;12.82;;
12869;SDS011;6503;48.572;13.460;2023-01-08T08:00:07;24.20;;;12.10;;
12869;SDS011;6503;48.572;13.460;2023-01-08T08:02:35;21.60;;;12.68;;
12869;SDS011;6503;48.572;13.460;2023-01-08T08:05:02;27.10;;;13.32;;
12869;SDS011;6503;48.572;13.460;2023-01-08T08:07:30;32.63;;;12.13;;
12869;SDS011;6503;48.572;13.460;2023-01-08T08:09:57;26.73;;;12.45;;
12869;SDS011;6503;48.572;13.460;2023-01-08T08:12:27;27.00;;;12.98;;
12869;SDS011;6503;48.572;13.460;2023-01-08T08:14:54;38.08;;;13.55;;
12869;SDS011;6503;48.572;13.460;2023-01-08T08:17:21;23.27;;;12.38;;
12869;SDS011;6503;48.572;13.460;2023-01-08T08:19:48;26.17;;;12.63;;
12869;SDS011;6503;48.572;13.460;2023-01-08T08:22:15;32.58;;;12.93;;
12869;SDS011;6503;48.572;13.460;2023-01-08T08:24:42;34.80;;;13.13;;
12869;SDS011;6503;48.572;13.460;2023-01-08T08:27:12;38.17;;;13.93;;
12869;SDS011;6503;48.572;13.460;2023-01-08T08:29:41;37.28;;;15.48;;
12869;SDS011;6503;48.572;13.460;2023-01-08T08:32:08;40.38;;;14.35;;
12869;SDS011;6503;48.572;13.460;2023-01-08T08:34:35;37.92;;;15.50;;
12869;SDS011;6503;48.572;13.460;2023-01-08T08:37:02;41.88;;;15.77;;
12869;SDS011;6503;48.572;13.460;2023-01-08T08:39:29;45.80;;;16.00;;
12869;SDS011;6503;48.572;13.460;2023-01-08T08:41:56;41.17;;;15.70;;
12869;SDS011;6503;48.572;13.460;2023-01-08T08:44:23;38.08;;;14.13;;
12869;SDS011;6503;48.572;13.460;2023-01-08T08:46:51;37.47;;;14.65;;
12869;SDS011;6503;48.572;13.460;2023-01-08T08:49:18;30.05;;;14.55;;
12869;SDS011;6503;48.572;13.460;2023-01-08T08:51:45;36.15;;;13.85;;
12869;SDS011;6503;48.572;13.460;2023-01-08T08:54:12;26.88;;;12.95;;
12869;SDS011;6503;48.572;13.460;2023-01-08T08:56:39;30.70;;;15.10;;
12869;SDS011;6503;48.572;13.460;2023-01-08T08:59:06;30.80;;;14.85;;
12869;SDS011;6503;48.572;13.460;2023-01-08T09:04:05;34.25;;;13.98;;
12869;SDS011;6503;48.572;13.460;2023-01-08T09:06:32;30.23;;;15.10;;
12869;SDS011;6503;48.572;13.460;2023-01-08T09:08:59;30.63;;;13.63;;
12869;SDS011;6503;48.572;13.460;2023-01-08T09:11:26;31.58;;;14.52;;
12869;SDS011;6503;48.572;13.460;2023-01-08T09:13:52;27.60;;;14.80;;
12869;SDS011;6503;48.572;13.460;2023-01-08T09:16:19;27.75;;;12.88;;
12869;SDS011;6503;48.572;13.460;2023-01-08T09:18:46;28.20;;;14.60;;
12869;SDS011;6503;48.572;13.460;2023-01-08T09:21:15;34.15;;;14.73;;
12869;SDS011;6503;48.572;13.460;2023-01-08T09:23:42;27.83;;;14.13;;
12869;SDS011;6503;48.572;13.460;2023-01-08T09:26:09;27.92;;;14.20;;
12869;SDS011;6503;48.572;13.460;2023-01-08T09:28:36;32.65;;;15.10;;
12869;SDS011;6503;48.572;13.460;2023-01-08T09:31:03;31.27;;;16.33;;
12869;SDS011;6503;48.572;13.460;2023-01-08T09:33:31;33.05;;;15.98;;
12869;SDS011;6503;48.572;13.460;2023-01-08T09:35:58;31.65;;;15.25;;
12869;SDS011;6503;48.572;13.460;2023-01-08T09:38:27;30.25;;;15.93;;
12869;SDS011;6503;48.572;13.460;2023-01-08T09:40:55;25.83;;;13.70;;
12869;SDS011;6503;48.572;13.460;2023-01-08T09:43:27;30.88;;;14.25;;
12869;SDS011;6503;48.572;13.460;2023-01-08T09:45:56;29.75;;;14.82;;
12869;SDS011;6503;48.572;13.460;2023-01-08T09:48:26;25.13;;;13.20;;
12869;SDS011;6503;48.572;13.460;2023-01-08T09:50:57;27.60;;;14.50;;
12869;SDS011;6503;48.572;13.460;2023-01-08T09:53:24;25.67;;;13.65;;
12869;SDS011;6503;48.572;13.460;2023-01-08T09:55:55;29.15;;;14.32;;
12869;SDS011;6503;48.572;13.460;2023-01-08T09:58:27;25.95;;;13.65;;
12869;SDS011;6503;48.572;13.460;2023-01-08T10:00:59;23.02;;;13.35;;
12869;SDS011;6503;48.572;13.460;2023-01-08T10:03:28;25.70;;;13.73;;
12869;SDS011;6503;48.572;13.460;2023-01-08T10:05:59;23.95;;;13.00;;
12869;SDS011;6503;48.572;13.460;2023-01-08T10:08:26;29.50;;;14.55;;
12869;SDS011;6503;48.572;13.460;2023-01-08T10:10:55;30.00;;;14.32;;
12869;SDS011;6503;48.572;13.460;2023-01-08T10:13:22;29.67;;;15.73;;
12869;SDS011;6503;48.572;13.460;2023-01-08T10:15:50;26.17;;;13.85;;
12869;SDS011;6503;48.572;13.460;2023-01-08T10:18:17;28.13;;;14.15;;
12869;SDS011;6503;48.572;13.460;2023-01-08T10:20:48;26.05;;;14.20;;
12869;SDS011;6503;48.572;13.460;2023-01-08T10:23:16;25.50;;;14.15;;
12869;SDS011;6503;48.572;13.460;2023-01-08T10:25:48;31.92;;;14.68;;
12869;SDS011;6503;48.572;13.460;2023-01-08T10:28:20;27.08;;;14.77;;
12869;SDS011;6503;48.572;13.460;2023-01-08T10:30:49;25.30;;;13.65;;
12869;SDS011;6503;48.572;13.460;2023-01-08T10:33:18;32.55;;;16.77;;
12869;SDS011;6503;48.572;13.460;2023-01-08T10:35:51;32.28;;;15.52;;
12869;SDS011;6503;48.572;13.460;2023-01-08T10:38:22;35.03;;;16.10;;
12869;SDS011;6503;48.572;13.460;2023-01-08T10:40:54;31.58;;;17.02;;
12869;SDS011;6503;48.572;13.460;2023-01-08T10:43:24;31.90;;;15.80;;
12869;SDS011;6503;48.572;13.460;2023-01-08T10:45:54;33.40;;;16.85;;
12869;SDS011;6503;48.572;13.460;2023-01-08T10:48:26;33.97;;;16.10;;
12869;SDS011;6503;48.572;13.460;2023-01-08T10:51:04;33.25;;;16.25;;
12869;SDS011;6503;48.572;13.460;2023-01-08T10:53:33;31.83;;;15.93;;
12869;SDS011;6503;48.572;13.460;2023-01-08T10:56:01;32.00;;;16.80;;
12869;SDS011;6503;48.572;13.460;2023-01-08T10:58:39;34.65;;;15.60;;
12869;SDS011;6503;48.572;13.460;2023-01-08T11:01:10;30.90;;;15.88;;
12869;SDS011;6503;48.572;13.460;2023-01-08T11:03:39;33.92;;;16.85;;
12869;SDS011;6503;48.572;13.460;2023-01-08T11:06:11;30.83;;;15.40;;
12869;SDS011;6503;48.572;13.460;2023-01-08T11:08:47;33.20;;;16.23;;
12869;SDS011;6503;48.572;13.460;2023-01-08T11:11:16;34.88;;;18.00;;
12869;SDS011;6503;48.572;13.460;2023-01-08T11:13:49;33.00;;;17.08;;
12869;SDS011;6503;48.572;13.460;2023-01-08T11:16:29;33.67;;;16.37;;
12869;SDS011;6503;48.572;13.460;2023-01-08T11:18:57;34.65;;;17.98;;
12869;SDS011;6503;48.572;13.460;2023-01-08T11:21:25;35.85;;;18.00;;
12869;SDS011;6503;48.572;13.460;2023-01-08T11:24:00;30.98;;;16.38;;
12869;SDS011;6503;48.572;13.460;2023-01-08T11:26:43;35.25;;;17.50;;
12869;SDS011;6503;48.572;13.460;2023-01-08T11:29:16;38.60;;;19.30;;
12869;SDS011;6503;48.572;13.460;2023-01-08T11:31:49;42.42;;;18.83;;
12869;SDS011;6503;48.572;13.460;2023-01-08T11:34:23;35.33;;;19.02;;
12869;SDS011;6503;48.572;13.460;2023-01-08T11:36:55;40.72;;;18.55;;
12869;SDS011;6503;48.572;13.460;2023-01-08T11:39:30;33.22;;;17.80;;
12869;SDS011;6503;48.572;13.460;2023-01-08T11:42:08;36.95;;;17.10;;
12869;SDS011;6503;48.572;13.460;2023-01-08T11:44:49;36.85;;;17.23;;
12869;SDS011;6503;48.572;13.460;2023-01-08T11:47:31;34.90;;;15.93;;
12869;SDS011;6503;48.572;13.460;2023-01-08T11:50:10;33.47;;;16.23;;
12869;SDS011;6503;48.572;13.460;2023-01-08T11:52:48;31.35;;;15.88;;
12869;SDS011;6503;48.572;13.460;2023-01-08T11:58:21;31.27;;;15.27;;
12869;SDS011;6503;48.572;13.460;2023-01-08T12:00:58;32.35;;;16.23;;
12869;SDS011;6503;48.572;13.460;2023-01-08T12:03:43;31.38;;;15.60;;
12869;SDS011;6503;48.572;13.460;2023-01-08T12:06:26;31.17;;;16.08;;
12869;SDS011;6503;48.572;13.460;2023-01-08T12:09:07;27.90;;;14.88;;
12869;SDS011;6503;48.572;13.460;2023-01-08T12:11:43;31.80;;;16.25;;
12869;SDS011;6503;48.572;13.460;2023-01-08T12:14:23;30.65;;;16.33;;
12869;SDS011;6503;48.572;13.460;2023-01-08T12:17:15;29.85;;;16.23;;
12869;SDS011;6503;48.572;13.460;2023-01-08T12:20:08;38.78;;;18.13;;
12869;SDS011;6503;48.572;13.460;2023-01-08T12:22:43;27.73;;;15.70;;
12869;SDS011;6503;48.572;13.460;2023-01-08T12:25:21;34.15;;;16.60;;
12869;SDS011;6503;48.572;13.460;2023-01-08T12:28:11;36.42;;;18.30;;
12869;SDS011;6503;48.572;13.460;2023-01-08T12:30:45;36.17;;;17.20;;
12869;SDS011;6503;48.572;13.460;2023-01-08T12:33:31;33.10;;;16.77;;
12869;SDS011;6503;48.572;13.460;2023-01-08T12:36:04;34.45;;;16.90;;
12869;SDS011;6503;48.572;13.460;2023-01-08T12:38:36;37.03;;;17.85;;
12869;SDS011;6503;48.572;13.460;2023-01-08T12:41:08;37.13;;;17.85;;
12869;SDS011;6503;48.572;13.460;2023-01-08T12:43:41;35.22;;;16.90;;
12869;SDS011;6503;48.572;13.460;2023-01-08T12:46:18;35.60;;;16.40;;
12869;SDS011;6503;48.572;13.460;2023-01-08T12:48:49;36.22;;;18.38;;
12869;SDS011;6503;48.572;13.460;2023-01-08T12:51:19;34.45;;;17.42;;
12869;SDS011;6503;48.572;13.460;2023-01-08T12:53:53;32.85;;;17.00;;
12869;SDS011;6503;48.572;13.460;2023-01-08T12:56:29;32.47;;;16.98;;
12869;SDS011;6503;48.572;13.460;2023-01-08T12:59:06;31.15;;;16.35;;
12869;SDS011;6503;48.572;13.460;2023-01-08T13:01:44;33.95;;;17.45;;
12869;SDS011;6503;48.572;13.460;2023-01-08T13:04:17;31.65;;;16.73;;
12869;SDS011;6503;48.572;13.460;2023-01-08T13:06:48;32.00;;;16.90;;
12869;SDS011;6503;48.572;13.460;2023-01-08T13:09:18;29.63;;;16.77;;
12869;SDS011;6503;48.572;13.460;2023-01-08T13:11:50;30.65;;;17.35;;
12869;SDS011;6503;48.572;13.460;2023-01-08T13:14:18;29.50;;;16.77;;
12869;SDS011;6503;48.572;13.460;2023-01-08T13:16:45;30.10;;;16.55;;
12869;SDS011;6503;48.572;13.460;2023-01-08T13:19:27;30.67;;;16.40;;
12869;SDS011;6503;48.572;13.460;2023-01-08T13:21:57;27.85;;;15.85;;
12869;SDS011;6503;48.572;13.460;2023-01-08T13:24:31;28.80;;;16.70;;
12869;SDS011;6503;48.572;13.460;2023-01-08T13:27:10;29.35;;;16.50;;
12869;SDS011;6503;48.572;13.460;2023-01-08T13:29:48;33.47;;;16.25;;
12869;SDS011;6503;48.572;13.460;2023-01-08T13:32:23;28.05;;;15.45;;
12869;SDS011;6503;48.572;13.460;2023-01-08T13:35:20;29.87;;;16.30;;
12869;SDS011;6503;48.572;13.460;2023-01-08T13:37:51;31.00;;;16.65;;
12869;SDS011;6503;48.572;13.460;2023-01-08T13:40:36;27.27;;;16.00;;
12869;SDS011;6503;48.572;13.460;2023-01-08T13:43:24;29.98;;;17.25;;
12869;SDS011;6503;48.572;13.460;2023-01-08T13:46:04;29.90;;;16.85;;
12869;SDS011;6503;48.572;13.460;2023-01-08T13:48:37;32.00;;;17.27;;
12869;SDS011;6503;48.572;13.460;2023-01-08T13:51:31;30.83;;;16.52;;
12869;SDS011;6503;48.572;13.460;2023-01-08T13:54:13;30.40;;;17.60;;
12869;SDS011;6503;48.572;13.460;2023-01-08T13:56:45;29.95;;;16.52;;
12869;SDS011;6503;48.572;13.460;2023-01-08T13:59:19;33.00;;;19.15;;
12869;SDS011;6503;48.572;13.460;2023-01-08T14:01:54;32.87;;;16.87;;
12869;SDS011;6503;48.572;13.460;2023-01-08T14:04:21;32.67;;;17.55;;
12869;SDS011;6503;48.572;13.460;2023-01-08T14:06:51;29.27;;;16.65;;
12869;SDS011;6503;48.572;13.460;2023-01-08T14:09:19;30.98;;;16.45;;
12869;SDS011;6503;48.572;13.460;2023-01-08T14:11:49;30.92;;;17.20;;
12869;SDS011;6503;48.572;13.460;2023-01-08T14:14:20;29.92;;;16.65;;
12869;SDS011;6503;48.572;13.460;2023-01-08T14:16:50;28.63;;;16.15;;
12869;SDS011;6503;48.572;13.460;2023-01-08T14:19:19;27.15;;;15.25;;
12869;SDS011;6503;48.572;13.460;2023-01-08T14:21:48;29.70;;;16.17;;
12869;SDS011;6503;48.572;13.460;2023-01-08T14:24:19;29.30;;;16.88;;
12869;SDS011;6503;48.572;13.460;2023-01-08T14:26:50;29.27;;;17.17;;
12869;SDS011;6503;48.572;13.460;2023-01-08T14:31:46;32.13;;;16.65;;
12869;SDS011;6503;48.572;13.460;2023-01-08T14:34:16;30.70;;;17.17;;
12869;SDS011;6503;48.572;13.460;2023-01-08T14:36:43;34.25;;;16.30;;
12869;SDS011;6503;48.572;13.460;2023-01-08T14:39:20;32.65;;;16.45;;
12869;SDS011;6503;48.572;13.460;2023-01-08T14:41:50;30.48;;;16.15;;
12869;SDS011;6503;48.572;13.460;2023-01-08T14:44:38;27.42;;;15.50;;
12869;SDS011;6503;48.572;13.460;2023-01-08T14:47:05;28.90;;;16.60;;
12869;SDS011;6503;48.572;13.460;2023-01-08T14:49:41;27.08;;;14.85;;
12869;SDS011;6503;48.572;13.460;2023-01-08T14:52:09;30.55;;;17.45;;
12869;SDS011;6503;48.572;13.460;2023-01-08T14:54:43;29.80;;;16.45;;
12869;SDS011;6503;48.572;13.460;2023-01-08T14:57:29;31.80;;;17.85;;
12869;SDS011;6503;48.572;13.460;2023-01-08T14:59:59;31.17;;;17.73;;
12869;SDS011;6503;48.572;13.460;2023-01-08T15:02:27;34.90;;;17.90;;
12869;SDS011;6503;48.572;13.460;2023-01-08T15:05:12;30.13;;;16.88;;
12869;SDS011;6503;48.572;13.460;2023-01-08T15:07:41;31.17;;;16.83;;
12869;SDS011;6503;48.572;13.460;2023-01-08T15:10:30;29.60;;;17.13;;
12869;SDS011;6503;48.572;13.460;2023-01-08T15:13:02;29.88;;;15.57;;
12869;SDS011;6503;48.572;13.460;2023-01-08T15:15:31;29.85;;;16.48;;
12869;SDS011;6503;48.572;13.460;2023-01-08T15:18:13;28.38;;;15.15;;
12869;SDS011;6503;48.572;13.460;2023-01-08T15:20:42;21.05;;;12.07;;
12869;SDS011;6503;48.572;13.460;2023-01-08T15:23:18;22.50;;;12.15;;
12869;SDS011;6503;48.572;13.460;2023-01-08T15:25:52;22.23;;;12.05;;
12869;SDS011;6503;48.572;13.460;2023-01-08T15:28:20;20.80;;;11.77;;
12869;SDS011;6503;48.572;13.460;2023-01-08T15:30:49;23.25;;;12.02;;
12869;SDS011;6503;48.572;13.460;2023-01-08T15:33:18;22.83;;;12.82;;
12869;SDS011;6503;48.572;13.460;2023-01-08T15:35:46;22.15;;;11.60;;